createdAt,value
2023-02-19T00:01:35.644Z,85.66
2023-02-19T00:04:10.192Z,85.79
2023-02-19T00:06:37.169Z,85.84
2023-02-19T00:09:04.775Z,86.63
2023-02-19T00:11:34.006Z,87.80
2023-02-19T00:14:02.437Z,87.55
2023-02-19T00:16:32.292Z,87.87
2023-02-19T00:19:00.525Z,87.35
2023-02-19T00:21:28.063Z,87.22
2023-02-19T00:23:57.950Z,87.65
2023-02-19T00:26:25.263Z,87.54
2023-02-19T00:28:53.720Z,87.82
2023-02-19T00:31:27.645Z,87.26
2023-02-19T00:33:57.654Z,87.50
2023-02-19T00:36:26.095Z,87.65
2023-02-19T00:38:52.879Z,88.82
2023-02-19T00:41:21.603Z,89.10
2023-02-19T00:43:49.568Z,89.14
2023-02-19T00:46:22.436Z,89.27
2023-02-19T00:48:49.289Z,89.90
2023-02-19T00:51:16.169Z,89.93
2023-02-19T00:53:43.551Z,90.66
2023-02-19T00:56:10.965Z,90.79
2023-02-19T00:58:38.405Z,90.34
2023-02-19T01:01:06.665Z,90.31
2023-02-19T01:03:34.934Z,90.17
2023-02-19T01:06:02.251Z,89.97
2023-02-19T01:08:31.179Z,89.63
2023-02-19T01:11:00.941Z,89.33
2023-02-19T01:13:28.519Z,89.06
2023-02-19T01:16:17.387Z,89.09
2023-02-19T01:18:45.129Z,88.78
2023-02-19T01:21:17.795Z,89.09
2023-02-19T01:23:46.666Z,88.74
2023-02-19T01:26:16.949Z,88.83
2023-02-19T01:28:44.948Z,88.46
2023-02-19T01:31:17.745Z,87.98
2023-02-19T01:33:49.340Z,87.76
2023-02-19T01:36:16.946Z,87.64
2023-02-19T01:38:44.522Z,87.52
2023-02-19T01:41:17.310Z,87.22
2023-02-19T01:44:09.125Z,87.44
2023-02-19T01:46:44.360Z,87.40
2023-02-19T01:49:18.749Z,87.49
2023-02-19T01:51:49.508Z,87.30
2023-02-19T01:54:22.722Z,87.25
2023-02-19T01:56:50.409Z,87.64
2023-02-19T01:59:18.920Z,88.23
2023-02-19T02:01:46.090Z,88.95
2023-02-19T02:04:14.875Z,88.97
2023-02-19T02:06:57.376Z,88.47
2023-02-19T02:09:47.287Z,87.96
2023-02-19T02:12:14.470Z,87.79
2023-02-19T02:14:45.457Z,87.53
2023-02-19T02:17:12.643Z,87.68
2023-02-19T02:20:01.160Z,87.76
2023-02-19T02:22:43.381Z,88.02
2023-02-19T02:25:52.759Z,87.79
2023-02-19T02:28:37.221Z,88.59
2023-02-19T02:31:14.167Z,88.27
2023-02-19T02:34:04.870Z,88.11
2023-02-19T02:36:43.607Z,87.74
2023-02-19T02:39:17.549Z,87.86
2023-02-19T02:42:09.630Z,87.51
2023-02-19T02:44:38.227Z,87.44
2023-02-19T02:47:07.316Z,87.69
2023-02-19T02:49:55.446Z,88.00
2023-02-19T02:52:41.379Z,87.53
2023-02-19T02:55:11.089Z,87.47
2023-02-19T02:57:38.812Z,87.83
2023-02-19T03:00:06.499Z,88.00
2023-02-19T03:02:33.825Z,87.59
2023-02-19T03:05:24.363Z,87.76
2023-02-19T03:08:07.592Z,88.07
2023-02-19T03:10:41.762Z,87.94
2023-02-19T03:13:35.289Z,88.35
2023-02-19T03:16:28.696Z,88.36
2023-02-19T03:19:32.134Z,88.29
2023-02-19T03:22:22.800Z,88.07
2023-02-19T03:25:18.193Z,87.90
2023-02-19T03:27:48.405Z,87.95
2023-02-19T03:30:20.816Z,88.00
2023-02-19T03:33:03.088Z,87.79
2023-02-19T03:35:34.164Z,87.70
2023-02-19T03:38:04.929Z,87.52
2023-02-19T03:40:44.058Z,87.29
2023-02-19T03:43:23.625Z,87.19
2023-02-19T03:46:23.355Z,87.04
2023-02-19T03:49:06.608Z,87.00
2023-02-19T03:51:43.305Z,86.77
2023-02-19T03:54:16.221Z,86.91
2023-02-19T03:56:58.686Z,87.30
2023-02-19T03:59:37.555Z,87.16
2023-02-19T04:02:13.623Z,87.11
2023-02-19T04:04:56.403Z,87.19
2023-02-19T04:07:25.642Z,87.76
2023-02-19T04:09:53.507Z,87.47
2023-02-19T04:12:23.263Z,87.69
2023-02-19T04:15:07.151Z,87.58
2023-02-19T04:17:42.499Z,87.56
2023-02-19T04:20:11.876Z,87.64
2023-02-19T04:22:40.106Z,87.84
2023-02-19T04:25:08.184Z,87.86
2023-02-19T04:27:44.455Z,87.67
2023-02-19T04:30:13.701Z,87.76
2023-02-19T04:32:40.415Z,87.92
2023-02-19T04:35:07.253Z,87.62
2023-02-19T04:37:33.985Z,87.85
2023-02-19T04:40:00.842Z,87.84
2023-02-19T04:42:27.642Z,87.92
2023-02-19T04:44:54.350Z,87.61
2023-02-19T04:47:21.062Z,87.85
2023-02-19T04:49:47.947Z,87.83
2023-02-19T04:52:14.979Z,87.63
2023-02-19T04:54:41.731Z,87.64
2023-02-19T04:57:08.594Z,87.91
2023-02-19T04:59:35.457Z,87.76
2023-02-19T05:02:02.166Z,87.90
2023-02-19T05:04:28.976Z,87.94
2023-02-19T05:06:55.856Z,87.96
2023-02-19T05:09:22.636Z,87.65
2023-02-19T05:11:49.448Z,88.23
2023-02-19T05:14:17.218Z,88.38
2023-02-19T05:16:43.991Z,88.25
2023-02-19T05:19:13.842Z,88.17
2023-02-19T05:21:41.043Z,88.16
2023-02-19T05:24:08.340Z,88.37
2023-02-19T05:26:35.576Z,88.48
2023-02-19T05:29:02.774Z,88.17
2023-02-19T05:31:30.020Z,88.33
2023-02-19T05:33:57.002Z,88.24
2023-02-19T05:36:24.340Z,88.53
2023-02-19T05:38:55.212Z,90.03
2023-02-19T05:41:24.820Z,90.25
2023-02-19T05:43:51.910Z,90.02
2023-02-19T05:46:21.682Z,89.75
2023-02-19T05:48:49.316Z,89.47
2023-02-19T05:51:18.433Z,89.33
2023-02-19T05:53:46.211Z,89.55
2023-02-19T05:56:31.271Z,89.41
2023-02-19T05:58:58.416Z,88.88
2023-02-19T06:01:28.443Z,88.63
2023-02-19T06:03:57.483Z,87.92
2023-02-19T06:06:26.221Z,88.09
2023-02-19T06:08:53.428Z,88.33
2023-02-19T06:11:20.641Z,88.19
2023-02-19T06:13:49.427Z,88.59
2023-02-19T06:16:17.831Z,88.48
2023-02-19T06:18:45.237Z,88.37
2023-02-19T06:21:12.603Z,88.45
2023-02-19T06:23:39.897Z,88.20
2023-02-19T06:26:06.681Z,88.73
2023-02-19T06:28:33.614Z,88.51
2023-02-19T06:31:00.657Z,88.88
2023-02-19T06:33:28.442Z,88.62
2023-02-19T06:35:58.753Z,88.64
2023-02-19T06:38:25.651Z,88.57
2023-02-19T06:40:52.527Z,88.91
2023-02-19T06:43:19.523Z,88.95
2023-02-19T06:45:46.899Z,88.83
2023-02-19T06:48:13.754Z,89.15
2023-02-19T06:50:40.421Z,89.03
2023-02-19T06:53:09.031Z,89.44
2023-02-19T06:55:35.996Z,89.22
2023-02-19T06:58:02.757Z,88.69
2023-02-19T07:00:29.840Z,89.07
2023-02-19T07:02:56.806Z,89.62
2023-02-19T07:05:23.707Z,90.14
2023-02-19T07:07:50.625Z,90.22
2023-02-19T07:10:18.013Z,90.40
2023-02-19T07:12:44.831Z,89.83
2023-02-19T07:15:11.556Z,89.55
2023-02-19T07:17:38.307Z,89.86
2023-02-19T07:20:05.246Z,90.05
2023-02-19T07:22:32.016Z,89.88
2023-02-19T07:24:58.804Z,89.53
2023-02-19T07:27:25.539Z,89.30
2023-02-19T07:29:52.414Z,89.45
2023-02-19T07:32:19.313Z,89.51
2023-02-19T07:34:45.966Z,89.40
2023-02-19T07:37:12.821Z,89.51
2023-02-19T07:39:39.664Z,89.54
2023-02-19T07:42:06.632Z,89.21
2023-02-19T07:44:33.622Z,89.32
2023-02-19T07:47:00.388Z,89.57
2023-02-19T07:49:27.162Z,89.36
2023-02-19T07:51:53.960Z,89.08
2023-02-19T07:54:20.717Z,89.07
2023-02-19T07:56:47.524Z,88.61
2023-02-19T07:59:15.898Z,88.19
2023-02-19T08:02:01.279Z,88.40
2023-02-19T08:04:28.095Z,88.31
2023-02-19T08:06:54.833Z,88.71
2023-02-19T08:09:21.638Z,88.62
2023-02-19T08:12:07.071Z,88.50
2023-02-19T08:14:34.059Z,88.63
2023-02-19T08:17:01.078Z,88.22
2023-02-19T08:19:28.067Z,87.92
2023-02-19T08:21:54.904Z,87.68
2023-02-19T08:24:21.797Z,87.58
2023-02-19T08:26:48.661Z,87.15
2023-02-19T08:29:15.455Z,87.45
2023-02-19T08:31:42.334Z,88.04
2023-02-19T08:34:09.219Z,87.74
2023-02-19T08:36:35.957Z,87.80
2023-02-19T08:39:02.941Z,87.89
2023-02-19T08:41:29.744Z,87.40
2023-02-19T08:43:56.719Z,87.17
2023-02-19T08:46:23.685Z,87.73
2023-02-19T08:48:50.635Z,87.83
2023-02-19T08:51:18.990Z,88.04
2023-02-19T08:53:46.198Z,88.29
2023-02-19T08:56:18.630Z,87.90
2023-02-19T08:58:45.844Z,87.84
2023-02-19T09:01:15.558Z,87.54
2023-02-19T09:03:42.688Z,87.91
2023-02-19T09:06:17.929Z,87.89
2023-02-19T09:08:45.111Z,88.05
2023-02-19T09:11:12.684Z,88.09
2023-02-19T09:13:39.755Z,88.30
2023-02-19T09:16:06.936Z,88.24
2023-02-19T09:18:33.898Z,87.76
2023-02-19T09:21:02.043Z,87.80
2023-02-19T09:23:29.163Z,87.77
2023-02-19T09:26:00.288Z,87.60
2023-02-19T09:28:28.265Z,87.33
2023-02-19T09:30:55.428Z,88.13
2023-02-19T09:33:22.345Z,87.79
2023-02-19T09:35:49.153Z,87.94
2023-02-19T09:38:16.095Z,88.28
2023-02-19T09:40:42.959Z,87.05
2023-02-19T09:43:16.814Z,86.54
2023-02-19T09:45:43.863Z,86.76
2023-02-19T09:48:12.587Z,86.68
2023-02-19T09:50:45.888Z,86.49
2023-02-19T09:53:29.808Z,86.98
2023-02-19T09:55:56.935Z,86.79
2023-02-19T09:58:30.106Z,86.57
2023-02-19T10:01:00.922Z,87.22
2023-02-19T10:03:33.713Z,87.06
2023-02-19T10:06:14.421Z,86.67
2023-02-19T10:08:41.740Z,87.13
2023-02-19T10:11:12.213Z,87.02
2023-02-19T10:13:47.497Z,86.93
2023-02-19T10:16:19.454Z,87.39
2023-02-19T10:18:49.739Z,87.39
2023-02-19T10:21:24.633Z,87.20
2023-02-19T10:23:57.553Z,87.11
2023-02-19T10:26:25.177Z,87.00
2023-02-19T10:28:55.585Z,86.85
2023-02-19T10:31:24.991Z,86.89
2023-02-19T10:33:56.993Z,86.80
2023-02-19T10:36:39.196Z,86.95
2023-02-19T10:39:33.464Z,87.14
2023-02-19T10:42:00.574Z,86.97
2023-02-19T10:44:42.894Z,87.30
2023-02-19T10:47:18.095Z,87.15
2023-02-19T10:49:48.892Z,87.47
2023-02-19T10:52:27.150Z,87.40
2023-02-19T10:55:13.253Z,87.33
2023-02-19T10:57:40.624Z,87.40
2023-02-19T11:00:16.405Z,87.54
2023-02-19T11:02:44.414Z,87.46
2023-02-19T11:05:17.147Z,87.43
2023-02-19T11:07:57.997Z,87.24
2023-02-19T11:10:49.530Z,86.39
2023-02-19T11:13:31.251Z,85.83
2023-02-19T11:15:59.131Z,85.16
2023-02-19T11:18:29.299Z,84.98
2023-02-19T11:20:59.236Z,84.97
2023-02-19T11:23:45.797Z,84.80
2023-02-19T11:26:28.051Z,83.74
2023-02-19T11:29:02.825Z,83.71
2023-02-19T11:31:35.510Z,82.90
2023-02-19T11:34:14.574Z,81.72
2023-02-19T11:36:42.919Z,80.82
2023-02-19T11:39:15.812Z,81.28
2023-02-19T11:42:10.680Z,82.18
2023-02-19T11:45:05.921Z,81.20
2023-02-19T11:47:51.268Z,80.41
2023-02-19T11:50:31.157Z,79.93
2023-02-19T11:53:30.611Z,77.12
2023-02-19T11:56:03.582Z,77.50
2023-02-19T11:58:39.058Z,77.65
2023-02-19T12:01:17.366Z,77.84
2023-02-19T12:04:03.255Z,77.43
2023-02-19T12:07:11.272Z,77.36
2023-02-19T12:10:09.196Z,75.35
2023-02-19T12:13:10.045Z,74.23
2023-02-19T12:15:45.646Z,74.13
2023-02-19T12:18:41.234Z,75.03
2023-02-19T12:21:26.399Z,74.52
2023-02-19T12:24:23.522Z,74.59
2023-02-19T12:27:11.379Z,74.86
2023-02-19T12:29:51.074Z,73.76
2023-02-19T12:32:41.252Z,73.48
2023-02-19T12:35:35.716Z,73.60
2023-02-19T12:38:35.909Z,73.53
2023-02-19T12:41:06.191Z,75.24
2023-02-19T12:43:34.838Z,73.39
2023-02-19T12:46:28.180Z,73.94
2023-02-19T12:49:00.562Z,75.05
2023-02-19T12:51:36.647Z,74.51
2023-02-19T12:54:21.052Z,73.02
2023-02-19T12:56:55.465Z,71.59
2023-02-19T12:59:28.816Z,72.81
2023-02-19T13:02:33.229Z,71.64
2023-02-19T13:05:14.411Z,71.76
2023-02-19T13:08:07.977Z,71.67
2023-02-19T13:11:07.170Z,69.80
2023-02-19T13:13:51.654Z,70.81
2023-02-19T13:16:21.128Z,70.00
2023-02-19T13:18:54.886Z,70.90
2023-02-19T13:21:43.007Z,72.45
2023-02-19T13:24:16.881Z,71.34
2023-02-19T13:27:14.033Z,71.02
2023-02-19T13:29:51.409Z,69.47
2023-02-19T13:32:38.732Z,70.06
2023-02-19T13:35:32.957Z,70.39
2023-02-19T13:38:04.331Z,71.30
2023-02-19T13:40:33.323Z,70.64
2023-02-19T13:43:03.633Z,71.00
2023-02-19T13:45:43.950Z,71.23
2023-02-19T13:48:14.022Z,72.14
2023-02-19T13:50:41.720Z,72.80
2023-02-19T13:53:45.284Z,72.81
2023-02-19T13:56:30.301Z,72.69
2023-02-19T13:58:58.464Z,73.25
2023-02-19T14:01:50.390Z,73.35
2023-02-19T14:04:40.283Z,73.61
2023-02-19T14:07:07.011Z,74.33
2023-02-19T14:09:40.057Z,74.34
2023-02-19T14:12:10.417Z,74.36
2023-02-19T14:14:39.352Z,74.03
2023-02-19T14:17:08.861Z,74.70
2023-02-19T14:19:41.731Z,74.88
2023-02-19T14:22:52.038Z,75.33
2023-02-19T14:25:30.822Z,75.35
2023-02-19T14:28:22.162Z,75.29
2023-02-19T14:30:48.959Z,75.92
2023-02-19T14:33:23.080Z,75.67
2023-02-19T14:35:55.495Z,75.77
2023-02-19T14:38:29.828Z,76.15
2023-02-19T14:40:57.724Z,75.97
2023-02-19T14:43:26.375Z,76.10
2023-02-19T14:46:01.338Z,75.71
2023-02-19T14:48:35.208Z,75.58
2023-02-19T14:51:13.264Z,75.68
2023-02-19T14:53:45.011Z,75.80
2023-02-19T14:56:23.579Z,76.36
2023-02-19T14:59:12.367Z,77.24
2023-02-19T15:01:40.239Z,76.56
2023-02-19T15:04:21.201Z,76.97
2023-02-19T15:06:48.310Z,76.81
2023-02-19T15:09:16.791Z,77.11
2023-02-19T15:11:44.118Z,77.70
2023-02-19T15:14:21.465Z,77.82
2023-02-19T15:16:48.906Z,78.04
2023-02-19T15:19:17.153Z,77.92
2023-02-19T15:21:47.947Z,78.08
2023-02-19T15:24:15.592Z,78.31
2023-02-19T15:26:47.342Z,78.43
2023-02-19T15:29:16.829Z,78.17
2023-02-19T15:31:53.012Z,77.89
2023-02-19T15:34:30.796Z,77.56
2023-02-19T15:37:05.661Z,77.77
2023-02-19T15:39:53.497Z,77.71
2023-02-19T15:42:30.508Z,77.80
2023-02-19T15:45:01.595Z,78.02
2023-02-19T15:47:42.049Z,78.32
2023-02-19T15:50:30.390Z,78.03
2023-02-19T15:53:18.709Z,78.76
2023-02-19T15:55:51.424Z,79.02
2023-02-19T15:58:33.297Z,79.13
2023-02-19T16:01:06.102Z,78.59
2023-02-19T16:03:33.145Z,78.99
2023-02-19T16:06:11.514Z,79.30
2023-02-19T16:08:40.903Z,79.64
2023-02-19T16:11:28.057Z,79.56
2023-02-19T16:14:33.453Z,79.46
2023-02-19T16:17:07.470Z,79.71
2023-02-19T16:19:42.829Z,79.86
2023-02-19T16:22:12.241Z,79.92
2023-02-19T16:24:51.325Z,80.36
2023-02-19T16:27:34.836Z,80.34
2023-02-19T16:30:26.802Z,81.12
2023-02-19T16:33:36.958Z,81.18
2023-02-19T16:36:21.884Z,81.05
2023-02-19T16:39:09.337Z,81.05
2023-02-19T16:41:48.131Z,80.88
2023-02-19T16:44:21.085Z,80.75
2023-02-19T16:46:49.864Z,80.41
2023-02-19T16:49:16.916Z,80.40
2023-02-19T16:51:45.092Z,80.46
2023-02-19T16:54:12.732Z,80.62
2023-02-19T16:56:39.781Z,80.36
2023-02-19T16:59:09.599Z,80.43
2023-02-19T17:01:40.984Z,80.87
2023-02-19T17:04:11.721Z,81.09
2023-02-19T17:06:39.524Z,81.35
2023-02-19T17:09:08.595Z,81.21
2023-02-19T17:11:36.436Z,81.55
2023-02-19T17:14:03.779Z,81.90
2023-02-19T17:16:40.575Z,81.92
2023-02-19T17:19:17.389Z,82.08
2023-02-19T17:21:45.492Z,82.15
2023-02-19T17:24:19.450Z,82.20
2023-02-19T17:26:46.527Z,81.93
2023-02-19T17:29:15.296Z,81.96
2023-02-19T17:31:42.285Z,82.02
2023-02-19T17:34:09.347Z,82.06
2023-02-19T17:36:38.101Z,82.02
2023-02-19T17:39:12.141Z,81.92
2023-02-19T17:41:39.225Z,81.69
2023-02-19T17:44:06.133Z,81.77
2023-02-19T17:46:34.128Z,81.94
2023-02-19T17:49:01.082Z,81.88
2023-02-19T17:51:28.218Z,82.26
2023-02-19T17:53:55.285Z,82.36
2023-02-19T17:56:28.348Z,82.40
2023-02-19T17:58:56.905Z,82.71
2023-02-19T18:01:24.626Z,82.61
2023-02-19T18:03:52.153Z,83.26
2023-02-19T18:06:19.296Z,83.29
2023-02-19T18:08:48.377Z,83.03
2023-02-19T18:11:15.508Z,83.08
2023-02-19T18:13:42.712Z,82.96
2023-02-19T18:16:10.083Z,83.08
2023-02-19T18:18:37.308Z,83.32
2023-02-19T18:21:07.859Z,83.46
2023-02-19T18:23:35.001Z,83.22
2023-02-19T18:26:02.244Z,83.28
2023-02-19T18:28:29.741Z,83.19
2023-02-19T18:30:56.766Z,83.03
2023-02-19T18:33:23.832Z,82.73
2023-02-19T18:35:50.977Z,81.91
2023-02-19T18:38:18.510Z,81.62
2023-02-19T18:40:46.578Z,81.58
2023-02-19T18:43:13.445Z,81.86
2023-02-19T18:45:40.330Z,82.00
2023-02-19T18:48:07.334Z,82.43
2023-02-19T18:50:35.147Z,82.46
2023-02-19T18:53:02.450Z,82.50
2023-02-19T18:55:29.575Z,82.63
2023-02-19T18:57:57.003Z,82.89
2023-02-19T19:00:26.739Z,82.77
2023-02-19T19:02:58.335Z,82.90
2023-02-19T19:05:26.406Z,83.37
2023-02-19T19:07:59.516Z,83.52
2023-02-19T19:10:27.158Z,83.35
2023-02-19T19:12:54.542Z,83.25
2023-02-19T19:15:22.452Z,83.16
2023-02-19T19:17:49.878Z,83.41
2023-02-19T19:20:19.179Z,83.28
2023-02-19T19:22:46.399Z,83.16
2023-02-19T19:25:13.256Z,83.36
2023-02-19T19:27:40.152Z,83.52
2023-02-19T19:30:08.262Z,83.47
2023-02-19T19:32:35.322Z,83.58
2023-02-19T19:35:02.195Z,83.50
2023-02-19T19:37:29.398Z,83.57
2023-02-19T19:39:58.102Z,83.64
2023-02-19T19:42:25.172Z,83.67
2023-02-19T19:44:52.214Z,83.78
2023-02-19T19:47:19.206Z,83.66
2023-02-19T19:49:47.301Z,83.83
2023-02-19T19:52:16.944Z,83.83
2023-02-19T19:54:43.912Z,83.84
2023-02-19T19:57:11.421Z,83.92
2023-02-19T19:59:39.658Z,83.86
2023-02-19T20:02:07.934Z,83.75
2023-02-19T20:04:34.908Z,83.65
2023-02-19T20:07:02.432Z,83.55
2023-02-19T20:09:29.520Z,83.46
2023-02-19T20:11:56.809Z,83.54
2023-02-19T20:14:24.996Z,83.55
2023-02-19T20:16:52.632Z,83.75
2023-02-19T20:19:20.801Z,83.96
2023-02-19T20:21:52.956Z,84.01
2023-02-19T20:24:26.123Z,83.98
2023-02-19T20:27:02.192Z,83.78
2023-02-19T20:29:31.678Z,84.11
2023-02-19T20:32:00.196Z,83.85
2023-02-19T20:34:27.282Z,84.28
2023-02-19T20:36:54.597Z,84.21
2023-02-19T20:39:22.819Z,84.25
2023-02-19T20:41:51.924Z,84.29
2023-02-19T20:44:19.851Z,84.12
2023-02-19T20:46:49.667Z,83.87
2023-02-19T20:49:19.105Z,83.94
2023-02-19T20:51:52.143Z,83.87
2023-02-19T20:54:22.423Z,83.91
2023-02-19T20:56:53.273Z,83.56
2023-02-19T20:59:21.785Z,83.44
2023-02-19T21:01:49.844Z,84.11
2023-02-19T21:04:18.497Z,84.26
2023-02-19T21:06:46.269Z,84.20
2023-02-19T21:09:13.210Z,84.08
2023-02-19T21:11:40.465Z,84.03
2023-02-19T21:14:07.614Z,83.23
2023-02-19T21:16:35.016Z,82.95
2023-02-19T21:19:02.547Z,83.12
2023-02-19T21:21:31.591Z,82.82
2023-02-19T21:24:00.155Z,82.57
2023-02-19T21:26:37.440Z,82.48
2023-02-19T21:29:08.003Z,82.70
2023-02-19T21:31:43.484Z,82.11
2023-02-19T21:34:14.329Z,82.04
2023-02-19T21:36:41.561Z,82.37
2023-02-19T21:39:12.166Z,82.61
2023-02-19T21:41:39.484Z,82.87
2023-02-19T21:44:06.831Z,83.26
2023-02-19T21:46:34.707Z,83.51
2023-02-19T21:49:02.354Z,82.63
2023-02-19T21:51:38.064Z,83.45
2023-02-19T21:54:07.041Z,83.52
2023-02-19T21:56:36.550Z,83.60
2023-02-19T21:59:04.034Z,83.71
2023-02-19T22:01:33.621Z,83.67
2023-02-19T22:04:01.302Z,83.66
2023-02-19T22:06:30.619Z,83.77
2023-02-19T22:08:59.066Z,83.62
2023-02-19T22:11:26.292Z,83.58
2023-02-19T22:13:53.551Z,83.33
2023-02-19T22:16:21.019Z,83.46
2023-02-19T22:18:56.268Z,83.59
2023-02-19T22:21:25.685Z,83.68
2023-02-19T22:23:54.051Z,83.66
2023-02-19T22:26:26.140Z,83.99
2023-02-19T22:28:53.380Z,83.98
2023-02-19T22:31:23.248Z,84.05
2023-02-19T22:33:50.440Z,84.11
2023-02-19T22:36:26.129Z,84.23
2023-02-19T22:38:53.506Z,83.96
2023-02-19T22:41:21.182Z,84.47
2023-02-19T22:43:48.536Z,84.85
2023-02-19T22:46:18.876Z,84.79
2023-02-19T22:48:46.272Z,84.85
2023-02-19T22:51:18.384Z,84.67
2023-02-19T22:53:49.197Z,84.62
2023-02-19T22:56:17.902Z,84.66
2023-02-19T22:58:45.018Z,84.74
2023-02-19T23:01:14.103Z,84.36
2023-02-19T23:03:55.156Z,84.27
2023-02-19T23:06:25.361Z,84.15
2023-02-19T23:08:53.794Z,84.06
2023-02-19T23:11:25.812Z,84.13
2023-02-19T23:13:53.440Z,83.98
2023-02-19T23:16:20.606Z,84.04
2023-02-19T23:18:48.140Z,84.34
2023-02-19T23:21:16.178Z,83.65
2023-02-19T23:23:44.832Z,83.60
2023-02-19T23:26:12.996Z,83.36
2023-02-19T23:28:41.956Z,83.19
2023-02-19T23:31:08.908Z,83.14
2023-02-19T23:33:36.076Z,83.16
2023-02-19T23:36:06.436Z,83.35
2023-02-19T23:38:33.710Z,83.22
2023-02-19T23:41:03.763Z,83.44
2023-02-19T23:43:30.601Z,83.41
2023-02-19T23:45:57.478Z,83.58
2023-02-19T23:48:24.422Z,83.21
2023-02-19T23:50:51.209Z,82.78
2023-02-19T23:53:18.045Z,83.23
2023-02-19T23:55:44.809Z,83.32
2023-02-19T23:58:11.925Z,83.43
